Time;durP1;ratioP1;P1;durP2;ratioP2;P2;SDS_P1;SDS_P2;PMS_P1;PMS_P2;Temp;Humidity;BMP_temperature;BMP_pressure;BME280_temperature;BME280_humidity;BME280_pressure;Samples;Min_cycle;Max_cycle;Signal;HPM_P1;HPM_P2
2024/04/07 00:00:45;;;;;;;8.50;4.30;;;;;;;9.73;100.00;100459.55;109515;1251;67030;-54
2024/04/07 00:03:12;;;;;;;7.20;4.10;;;;;;;9.70;100.00;100463.11;109488;1251;72749;-55
2024/04/07 00:05:40;;;;;;;5.80;3.80;;;;;;;9.66;100.00;100463.89;109477;1250;59752;-56
2024/04/07 00:08:07;;;;;;;7.30;3.90;;;;;;;9.64;100.00;100467.59;109460;1250;60202;-60
2024/04/07 00:10:38;;;;;;;5.80;3.40;;;;;;;9.61;100.00;100467.93;109459;1250;74689;-59
2024/04/07 00:13:05;;;;;;;5.50;3.60;;;;;;;9.56;100.00;100468.77;109459;1250;66441;-57
2024/04/07 00:15:33;;;;;;;6.80;3.60;;;;;;;9.50;100.00;100465.42;109515;1251;72737;-56
2024/04/07 00:18:00;;;;;;;6.50;3.50;;;;;;;9.47;100.00;100465.65;109391;1251;60145;-56
2024/04/07 00:20:28;;;;;;;6.20;3.60;;;;;;;9.43;100.00;100465.32;109467;1250;59719;-58
2024/04/07 00:22:55;;;;;;;7.10;3.90;;;;;;;9.41;100.00;100469.23;109539;1250;74264;-55
2024/04/07 00:25:23;;;;;;;5.40;3.60;;;;;;;9.37;100.00;100471.52;109472;1250;65684;-58
2024/04/07 00:27:50;;;;;;;7.10;4.40;;;;;;;9.34;100.00;100473.81;109465;1251;72776;-60
2024/04/07 00:30:17;;;;;;;6.50;3.50;;;;;;;9.32;100.00;100471.48;109459;1253;61709;-56
2024/04/07 00:32:45;;;;;;;5.80;3.60;;;;;;;9.30;100.00;100473.26;109448;1251;60062;-55
2024/04/07 00:35:13;;;;;;;6.70;4.20;;;;;;;9.29;100.00;100474.25;109478;1250;75506;-55
2024/04/07 00:37:41;;;;;;;7.20;3.60;;;;;;;9.27;100.00;100474.95;109454;1251;67002;-58
2024/04/07 00:40:09;;;;;;;7.40;3.70;;;;;;;9.24;100.00;100473.02;109490;1254;71428;-54
2024/04/07 00:42:36;;;;;;;6.90;3.80;;;;;;;9.20;100.00;100474.33;109491;1249;59840;-55
2024/04/07 00:45:04;;;;;;;8.60;4.00;;;;;;;9.16;100.00;100477.05;109478;1249;59692;-55
2024/04/07 00:47:31;;;;;;;7.50;3.80;;;;;;;9.13;100.00;100478.42;109460;1250;75530;-56
2024/04/07 00:49:59;;;;;;;7.20;4.00;;;;;;;9.08;100.00;100480.13;109424;1254;64629;-55
2024/04/07 00:52:26;;;;;;;8.20;4.30;;;;;;;9.04;100.00;100480.95;109262;1249;71694;-55
2024/04/07 00:54:55;;;;;;;8.90;4.60;;;;;;;8.97;100.00;100478.70;109481;1251;59731;-55
2024/04/07 00:57:24;;;;;;;6.40;4.20;;;;;;;8.92;100.00;100480.27;109393;1251;60087;-55
2024/04/07 00:59:51;;;;;;;7.50;4.30;;;;;;;8.89;100.00;100487.23;109490;1250;75597;-59
2024/04/07 01:02:19;;;;;;;6.40;3.50;;;;;;;8.87;100.00;100488.73;109485;1250;66926;-55
2024/04/07 01:04:46;;;;;;;7.70;5.10;;;;;;;8.83;100.00;100487.77;109514;1249;71833;-55
2024/04/07 01:07:14;;;;;;;12.50;4.70;;;;;;;8.81;100.00;100487.09;109487;1251;60424;-54
2024/04/07 01:09:41;;;;;;;7.80;4.30;;;;;;;8.80;100.00;100491.32;109486;1250;59811;-54
2024/04/07 01:12:12;;;;;;;8.80;4.40;;;;;;;8.78;100.00;100493.23;109359;1254;77665;-54
2024/04/07 01:14:40;;;;;;;7.60;4.40;;;;;;;8.77;100.00;100492.30;109489;1252;66949;-55
2024/04/07 01:17:07;;;;;;;7.40;4.50;;;;;;;8.76;100.00;100494.34;109519;1251;72722;-54
2024/04/07 01:19:35;;;;;;;6.30;3.80;;;;;;;8.75;100.00;100497.79;109497;1251;60012;-55
2024/04/07 01:22:03;;;;;;;7.10;4.10;;;;;;;8.73;100.00;100500.78;109452;1251;60231;-54
2024/04/07 01:24:30;;;;;;;9.20;4.60;;;;;;;8.69;100.00;100504.78;109512;1250;75438;-55
2024/04/07 01:26:57;;;;;;;8.10;4.20;;;;;;;8.67;100.00;100509.26;109460;1251;67070;-54
2024/04/07 01:29:25;;;;;;;8.70;4.30;;;;;;;8.64;100.00;100509.83;109476;1249;72772;-55
2024/04/07 01:31:53;;;;;;;9.90;4.30;;;;;;;8.64;100.00;100513.89;109440;1251;59710;-55
2024/04/07 01:34:20;;;;;;;7.10;4.20;;;;;;;8.63;100.00;100511.67;109419;1251;59851;-55
2024/04/07 01:36:49;;;;;;;7.20;4.10;;;;;;;8.63;100.00;100514.27;109511;1251;75541;-55
2024/04/07 01:39:16;;;;;;;7.40;4.00;;;;;;;8.61;100.00;100516.94;109430;1251;66390;-55
2024/04/07 01:41:44;;;;;;;6.50;3.90;;;;;;;8.59;100.00;100517.87;109463;1251;72670;-54
2024/04/07 01:44:12;;;;;;;8.30;4.80;;;;;;;8.56;100.00;100523.89;109356;1253;61872;-55
2024/04/07 01:46:39;;;;;;;6.70;3.90;;;;;;;8.53;100.00;100522.63;109455;1249;59803;-55
2024/04/07 01:49:06;;;;;;;9.00;4.10;;;;;;;8.50;100.00;100526.56;109441;1249;75503;-54
2024/04/07 01:51:34;;;;;;;7.30;3.60;;;;;;;8.47;100.00;100525.71;109463;1249;67427;-56
2024/04/07 01:54:02;;;;;;;8.70;4.30;;;;;;;8.44;100.00;100526.91;109395;1250;72909;-59
2024/04/07 01:56:30;;;;;;;6.50;4.40;;;;;;;8.42;100.00;100529.04;109422;1254;60107;-55
2024/04/07 01:58:57;;;;;;;7.90;4.20;;;;;;;8.40;100.00;100530.39;109439;1250;59709;-54
2024/04/07 02:01:25;;;;;;;7.80;4.10;;;;;;;8.38;100.00;100533.56;109459;1250;74574;-55
2024/04/07 02:03:53;;;;;;;8.00;4.00;;;;;;;8.36;100.00;100539.47;109436;1251;66304;-55
2024/04/07 02:06:20;;;;;;;10.20;4.60;;;;;;;8.34;100.00;100544.19;109460;1251;72707;-56
2024/04/07 02:08:49;;;;;;;7.50;4.00;;;;;;;8.33;100.00;100544.54;109451;1251;60297;-55
2024/04/07 02:11:16;;;;;;;6.70;3.60;;;;;;;8.29;100.00;100546.23;109406;1251;59758;-54
2024/04/07 02:13:43;;;;;;;7.30;3.90;;;;;;;8.28;100.00;100545.64;109466;1251;75668;-59
2024/04/07 02:16:11;;;;;;;6.40;3.70;;;;;;;8.29;100.00;100548.84;109487;1251;66362;-54
2024/04/07 02:18:38;;;;;;;7.20;3.90;;;;;;;8.29;100.00;100551.77;109437;1251;72866;-55
2024/04/07 02:21:06;;;;;;;8.10;4.50;;;;;;;8.28;100.00;100554.57;109419;1251;61635;-54
2024/04/07 02:23:33;;;;;;;7.10;3.60;;;;;;;8.25;100.00;100553.63;109574;1249;59853;-54
2024/04/07 02:26:01;;;;;;;8.20;4.20;;;;;;;8.24;100.00;100553.76;109433;1251;75535;-56
2024/04/07 02:28:28;;;;;;;7.80;3.70;;;;;;;8.22;100.00;100555.67;109478;1249;67412;-54
2024/04/07 02:30:55;;;;;;;6.70;3.70;;;;;;;8.21;100.00;100557.14;109465;1251;72719;-55
2024/04/07 02:33:23;;;;;;;7.40;4.20;;;;;;;8.19;100.00;100561.52;109474;1251;59802;-54
2024/04/07 02:35:56;;;;;;;8.00;3.80;;;;;;;8.16;100.00;100561.14;109456;1251;60158;-58
2024/04/07 02:38:23;;;;;;;6.70;3.90;;;;;;;8.11;100.00;100564.80;109405;1250;75549;-55
2024/04/07 02:40:50;;;;;;;7.50;3.80;;;;;;;8.07;100.00;100566.08;109465;1249;67073;-54
2024/04/07 02:43:18;;;;;;;7.80;3.80;;;;;;;8.05;100.00;100571.04;109436;1251;71035;-54
2024/04/07 02:48:31;;;;;;;8.10;3.90;;;;;;;8.04;100.00;100579.16;109448;1251;60218;-55
2024/04/07 02:50:59;;;;;;;7.50;3.50;;;;;;;8.02;100.00;100577.42;109437;1250;75544;-54
2024/04/07 02:53:26;;;;;;;9.30;4.50;;;;;;;8.01;100.00;100586.93;109444;1251;67414;-59
2024/04/07 02:55:54;;;;;;;6.80;3.60;;;;;;;8.00;100.00;100593.79;109388;1250;72897;-54
2024/04/07 02:58:21;;;;;;;7.90;3.60;;;;;;;7.99;100.00;100597.68;109411;1251;60411;-55
2024/04/07 03:00:48;;;;;;;7.40;4.00;;;;;;;7.99;100.00;100598.69;109495;1249;59678;-55
2024/04/07 03:03:16;;;;;;;9.50;4.10;;;;;;;8.01;100.00;100603.16;109496;1250;74602;-55
2024/04/07 03:05:44;;;;;;;10.10;4.50;;;;;;;8.03;100.00;100606.07;109415;1250;66042;-54
2024/04/07 03:08:11;;;;;;;8.30;4.20;;;;;;;8.08;100.00;100609.61;109432;1252;70664;-54
2024/04/07 03:10:39;;;;;;;9.70;4.70;;;;;;;8.20;100.00;100611.11;109437;1249;60431;-55
2024/04/07 03:13:07;;;;;;;9.00;4.50;;;;;;;8.39;100.00;100613.02;109429;1249;59967;-54
2024/04/07 03:15:34;;;;;;;6.40;3.80;;;;;;;8.61;100.00;100617.20;109438;1250;73723;-54
2024/04/07 03:18:02;;;;;;;10.60;4.20;;;;;;;8.94;100.00;100620.52;109418;1251;68319;-56
2024/04/07 03:20:29;;;;;;;7.70;4.00;;;;;;;9.36;100.00;100620.88;109451;1250;72703;-55
2024/04/07 03:22:57;;;;;;;6.90;4.20;;;;;;;9.84;100.00;100624.85;109424;1252;60137;-55
2024/04/07 03:25:24;;;;;;;14.70;3.90;;;;;;;10.38;100.00;100625.92;109451;1249;59721;-54
2024/04/07 03:27:52;;;;;;;8.30;3.70;;;;;;;11.00;100.00;100625.00;109390;1250;75439;-56
2024/04/07 03:30:19;;;;;;;8.10;3.30;;;;;;;11.71;100.00;100622.45;109506;1250;66976;-55
2024/04/07 03:32:48;;;;;;;7.20;3.60;;;;;;;12.51;100.00;100615.41;109459;1250;71380;-55
2024/04/07 03:35:16;;;;;;;5.80;3.20;;;;;;;13.34;100.00;100606.93;109340;1251;59731;-55
2024/04/07 03:37:43;;;;;;;9.60;4.30;;;;;;;14.16;100.00;100595.96;109470;1249;60355;-55
2024/04/07 03:40:10;;;;;;;8.40;3.60;;;;;;;14.96;100.00;100586.30;109431;1250;74486;-55
2024/04/07 03:42:38;;;;;;;7.70;3.60;;;;;;;15.74;100.00;100574.80;109422;1250;66149;-55
2024/04/07 03:45:09;;;;;;;6.10;3.50;;;;;;;16.53;100.00;100563.38;109477;1249;71379;-55
2024/04/07 03:47:37;;;;;;;7.40;3.60;;;;;;;17.31;100.00;100555.48;109439;1250;59812;-55
2024/04/07 03:50:05;;;;;;;6.60;3.30;;;;;;;18.07;100.00;100554.27;109413;1251;59856;-55
2024/04/07 03:52:32;;;;;;;7.20;3.60;;;;;;;18.78;100.00;100553.45;109446;1250;75541;-56
2024/04/07 03:55:00;;;;;;;5.90;3.90;;;;;;;19.38;100.00;100560.36;109444;1250;67054;-56
2024/04/07 03:57:28;;;;;;;8.30;4.70;;;;;;;20.02;100.00;100564.40;109472;1250;72729;-56
2024/04/07 03:59:55;;;;;;;8.60;6.10;;;;;;;20.64;100.00;100562.59;109388;1250;59946;-55
2024/04/07 04:02:24;;;;;;;7.90;6.00;;;;;;;21.20;99.79;100567.23;109448;1249;60129;-56
2024/04/07 04:04:56;;;;;;;10.60;6.20;;;;;;;21.69;86.19;100568.96;109501;1249;75435;-55
2024/04/07 04:07:27;;;;;;;7.80;5.60;;;;;;;22.08;75.93;100567.94;109469;1250;65611;-55
2024/04/07 04:09:55;;;;;;;7.90;5.60;;;;;;;22.43;68.75;100568.73;109434;1250;71605;-56
2024/04/07 04:12:23;;;;;;;9.80;5.10;;;;;;;22.78;62.08;100570.73;109488;1250;60100;-55
2024/04/07 04:14:54;;;;;;;6.10;4.90;;;;;;;23.05;57.95;100573.41;109490;1249;59716;-55
2024/04/07 04:17:22;;;;;;;;;;;;;;;23.40;54.01;100576.50;109481;1250;75484;-55
2024/04/07 04:19:50;;;;;;;6.40;4.60;;;;;;;23.71;50.82;100581.52;109439;1249;65621;-54
2024/04/07 04:22:18;;;;;;;11.20;4.60;;;;;;;24.06;49.07;100587.52;109482;1249;72745;-55
2024/04/07 04:24:45;;;;;;;5.20;4.10;;;;;;;24.46;46.74;100584.41;109452;1250;59797;-56
2024/04/07 04:27:13;;;;;;;5.80;4.40;;;;;;;24.79;44.82;100586.58;109443;1249;60112;-56
2024/04/07 04:29:40;;;;;;;7.50;4.70;;;;;;;25.10;42.76;100583.04;109413;1250;75435;-56
2024/04/07 04:32:08;;;;;;;8.80;4.70;;;;;;;25.24;41.46;100588.30;109515;1250;65826;-56
2024/04/07 04:34:35;;;;;;;7.60;4.50;;;;;;;25.46;41.07;100586.02;109455;1251;75276;-54
2024/04/07 04:37:04;;;;;;;5.50;4.20;;;;;;;25.76;40.01;100586.68;109452;1250;59955;-53
2024/04/07 04:39:32;;;;;;;6.50;4.20;;;;;;;25.98;39.38;100587.98;109313;1250;59814;-57
2024/04/07 04:41:59;;;;;;;7.50;4.90;;;;;;;26.33;38.97;100590.04;109390;1250;75800;-53
2024/04/07 04:44:27;;;;;;;7.30;4.20;;;;;;;26.70;37.98;100589.05;109489;1249;66220;-53
2024/04/07 04:46:55;;;;;;;7.40;5.00;;;;;;;27.00;36.98;100590.60;109434;1250;72900;-53
2024/04/07 04:49:22;;;;;;;7.10;4.40;;;;;;;27.13;36.32;100592.35;109462;1250;59782;-53
2024/04/07 04:51:51;;;;;;;6.20;4.30;;;;;;;27.23;35.93;100591.70;109439;1249;60304;-53
2024/04/07 04:54:18;;;;;;;5.60;4.10;;;;;;;27.39;35.81;100587.38;109461;1249;75768;-53
2024/04/07 04:56:46;;;;;;;6.60;4.00;;;;;;;27.67;35.37;100585.85;109484;1250;66907;-54
2024/04/07 04:59:14;;;;;;;5.80;4.10;;;;;;;27.92;35.05;100596.61;109483;1250;72767;-54
2024/04/07 05:01:41;;;;;;;5.40;3.90;;;;;;;28.06;34.11;100599.23;109416;1253;60633;-54
2024/04/07 05:04:09;;;;;;;5.50;3.60;;;;;;;28.03;33.53;100602.44;109456;1250;59848;-54
2024/04/07 05:06:36;;;;;;;5.00;3.40;;;;;;;28.04;33.82;100608.13;109465;1250;74279;-54
2024/04/07 05:09:05;;;;;;;6.20;3.50;;;;;;;28.03;33.49;100610.00;109460;1250;66954;-53
2024/04/07 05:11:32;;;;;;;4.20;2.80;;;;;;;27.99;33.69;100610.06;109470;1250;71497;-54
2024/04/07 05:14:00;;;;;;;7.20;3.00;;;;;;;28.17;33.58;100614.02;109426;1250;59707;-54
2024/04/07 05:16:27;;;;;;;4.00;2.80;;;;;;;28.32;33.10;100616.69;109469;1250;59722;-53
2024/04/07 05:18:55;;;;;;;4.10;2.90;;;;;;;28.39;32.91;100617.73;109483;1249;75554;-54
2024/04/07 05:21:23;;;;;;;5.90;2.50;;;;;;;28.45;32.85;100625.45;109514;1250;66188;-53
2024/04/07 05:23:50;;;;;;;4.80;2.50;;;;;;;28.47;32.63;100627.04;109454;1250;72641;-56
2024/04/07 05:26:18;;;;;;;5.10;2.60;;;;;;;28.35;32.67;100626.30;109512;1249;59764;-54
2024/04/07 05:28:45;;;;;;;3.70;2.60;;;;;;;28.14;32.96;100626.11;109489;1249;60262;-54
2024/04/07 05:31:13;;;;;;;5.00;2.50;;;;;;;27.98;33.25;100629.33;109511;1249;75533;-54
2024/04/07 05:33:45;;;;;;;4.80;2.70;;;;;;;27.72;33.12;100631.48;109469;1249;67646;-56
2024/04/07 05:36:13;;;;;;;3.80;2.50;;;;;;;27.12;34.05;100637.67;109451;1249;72411;-55
2024/04/07 05:38:42;;;;;;;4.30;2.80;;;;;;;26.43;34.91;100639.14;109464;1250;60420;-56
2024/04/07 05:41:09;;;;;;;3.90;2.90;;;;;;;25.57;36.07;100639.88;109452;1250;60151;-57
2024/04/07 05:43:37;;;;;;;3.40;2.60;;;;;;;24.75;37.91;100642.55;109515;1250;75554;-56
2024/04/07 05:46:05;;;;;;;7.80;3.30;;;;;;;24.22;39.17;100645.38;109462;1252;66102;-60
2024/04/07 05:48:33;;;;;;;6.00;3.40;;;;;;;23.84;40.57;100650.09;109464;1250;70722;-56
2024/04/07 05:51:00;;;;;;;5.30;3.00;;;;;;;23.57;41.80;100651.88;109492;1250;60201;-56
2024/04/07 05:53:28;;;;;;;3.90;2.60;;;;;;;23.46;42.97;100650.88;109484;1250;60090;-55
2024/04/07 05:55:55;;;;;;;4.70;3.10;;;;;;;23.39;43.81;100656.48;109452;1250;74419;-56
2024/04/07 05:58:23;;;;;;;4.50;2.90;;;;;;;23.41;44.51;100659.45;109455;1250;66961;-57
2024/04/07 06:00:51;;;;;;;4.70;3.00;;;;;;;23.70;44.67;100654.88;109466;1250;71732;-56
2024/04/07 06:03:19;;;;;;;5.40;2.80;;;;;;;23.87;44.34;100658.95;109451;1252;59998;-55
2024/04/07 06:05:46;;;;;;;4.10;2.80;;;;;;;23.91;44.35;100661.34;109499;1250;60128;-55
2024/04/07 06:08:14;;;;;;;5.20;2.90;;;;;;;23.94;44.05;100662.00;109464;1250;75084;-54
2024/04/07 06:10:41;;;;;;;5.00;3.10;;;;;;;23.90;44.04;100665.66;109372;1251;67324;-55
2024/04/07 06:13:09;;;;;;;4.00;2.80;;;;;;;23.77;44.43;100667.48;109465;1251;72720;-55
2024/04/07 06:15:38;;;;;;;4.10;2.90;;;;;;;23.69;44.97;100672.02;109468;1251;59757;-54
2024/04/07 06:18:06;;;;;;;5.10;3.50;;;;;;;23.72;45.82;100674.70;109439;1251;60195;-55
2024/04/07 06:20:33;;;;;;;5.90;3.00;;;;;;;23.87;46.01;100678.91;109428;1251;74257;-58
2024/04/07 06:23:01;;;;;;;4.80;2.90;;;;;;;24.07;45.72;100681.15;109468;1250;67601;-54
2024/04/07 06:25:28;;;;;;;5.50;3.00;;;;;;;24.29;44.91;100685.37;109387;1251;71147;-54
2024/04/07 06:27:56;;;;;;;4.40;3.10;;;;;;;24.57;44.73;100688.41;109416;1256;60176;-55
2024/04/07 06:30:23;;;;;;;4.20;2.80;;;;;;;25.05;43.19;100687.13;109404;1251;60259;-55
2024/04/07 06:32:51;;;;;;;4.80;3.20;;;;;;;25.72;41.29;100689.48;109357;1250;75997;-59
2024/04/07 06:35:18;;;;;;;5.40;2.90;;;;;;;26.39;39.52;100689.27;109413;1252;66572;-55
2024/04/07 06:37:46;;;;;;;3.70;2.30;;;;;;;27.01;38.30;100692.54;109435;1251;72547;-55
2024/04/07 06:40:13;;;;;;;4.00;2.70;;;;;;;27.60;37.18;100687.98;109416;1250;60193;-55
2024/04/07 06:42:41;;;;;;;4.40;2.20;;;;;;;28.24;35.52;100685.86;109459;1250;59984;-55
2024/04/07 06:45:08;;;;;;;3.90;2.20;;;;;;;28.69;34.51;100690.50;109420;1250;76295;-59
2024/04/07 06:47:35;;;;;;;5.30;3.00;;;;;;;29.06;33.72;100689.56;109431;1251;66278;-55
2024/04/07 06:50:03;;;;;;;3.70;2.40;;;;;;;29.43;33.27;100688.66;109459;1250;71136;-55
2024/04/07 06:52:31;;;;;;;3.40;2.10;;;;;;;29.86;32.43;100686.64;109422;1250;59762;-55
2024/04/07 06:54:58;;;;;;;3.70;2.00;;;;;;;30.23;31.24;100684.64;109466;1251;60078;-55
2024/04/07 06:57:26;;;;;;;3.90;2.30;;;;;;;30.50;30.73;100686.97;109388;1251;76296;-55
2024/04/07 06:59:55;;;;;;;4.60;2.20;;;;;;;30.66;30.05;100688.13;109484;1250;66948;-55
2024/04/07 07:02:23;;;;;;;4.00;2.20;;;;;;;30.76;29.73;100688.78;109443;1251;73613;-56
2024/04/07 07:04:50;;;;;;;3.90;2.40;;;;;;;30.96;29.68;100685.21;109433;1251;59759;-56
2024/04/07 07:07:18;;;;;;;4.00;2.30;;;;;;;31.28;29.42;100685.33;109492;1249;60609;-59
2024/04/07 07:09:45;;;;;;;4.20;1.90;;;;;;;31.61;29.07;100685.38;109498;1250;75676;-54
2024/04/07 07:12:12;;;;;;;3.70;2.30;;;;;;;31.80;28.43;100686.29;109495;1249;66414;-55
2024/04/07 07:14:40;;;;;;;4.60;2.40;;;;;;;31.77;28.34;100686.16;109447;1250;66065;-56
2024/04/07 07:17:07;;;;;;;4.50;2.20;;;;;;;31.67;28.42;100682.77;109443;1249;60171;-55
2024/04/07 07:19:35;;;;;;;4.80;2.00;;;;;;;31.69;28.23;100687.01;109394;1249;60838;-56
2024/04/07 07:22:02;;;;;;;3.90;2.00;;;;;;;31.76;28.28;100686.83;109648;1250;73981;-57
2024/04/07 07:24:30;;;;;;;4.90;2.10;;;;;;;31.84;28.25;100687.05;109539;1250;59939;-55
2024/04/07 07:26:57;;;;;;;5.40;2.20;;;;;;;32.00;27.84;100687.70;109463;1250;66100;-55
2024/04/07 07:29:25;;;;;;;4.10;2.30;;;;;;;32.05;27.95;100687.42;109433;1250;60005;-58
2024/04/07 07:31:56;;;;;;;3.70;2.20;;;;;;;32.16;27.86;100691.08;109461;1250;59803;-54
2024/04/07 07:34:24;;;;;;;3.60;2.00;;;;;;;32.30;27.24;100690.50;109469;1250;76095;-55
2024/04/07 07:36:52;;;;;;;3.40;1.90;;;;;;;32.23;27.31;100691.00;109414;1250;59822;-55
2024/04/07 07:39:20;;;;;;;3.80;2.00;;;;;;;32.27;27.49;100688.59;109460;1249;62586;-55
2024/04/07 07:41:47;;;;;;;3.20;1.80;;;;;;;32.45;27.18;100686.71;109380;1250;60146;-56
2024/04/07 07:44:14;;;;;;;3.60;2.00;;;;;;;32.64;26.84;100686.69;109418;1250;60231;-55
2024/04/07 07:46:42;;;;;;;3.70;2.40;;;;;;;32.68;26.45;100688.09;109374;1250;66542;-55
2024/04/07 07:49:10;;;;;;;3.10;1.80;;;;;;;32.41;26.49;100687.33;109466;1250;68772;-56
2024/04/07 07:51:37;;;;;;;2.80;1.70;;;;;;;32.42;26.63;100689.89;109507;1250;66027;-55
2024/04/07 07:54:05;;;;;;;4.30;1.80;;;;;;;32.47;26.30;100687.73;109434;1250;59805;-55
2024/04/07 07:56:32;;;;;;;2.60;1.60;;;;;;;32.32;26.37;100688.96;109470;1250;60937;-55
2024/04/07 07:59:00;;;;;;;3.30;1.60;;;;;;;32.43;26.47;100689.96;109479;1249;68979;-55
2024/04/07 08:01:27;;;;;;;3.00;1.80;;;;;;;32.75;26.12;100691.02;109477;1250;65132;-56
2024/04/07 08:03:55;;;;;;;3.40;1.40;;;;;;;33.00;25.59;100689.06;109371;1249;63849;-55
2024/04/07 08:06:22;;;;;;;3.50;1.90;;;;;;;33.12;24.92;100691.15;109450;1250;59795;-55
2024/04/07 08:08:50;;;;;;;3.60;1.80;;;;;;;32.89;24.57;100689.75;109557;1249;59674;-54
2024/04/07 08:11:17;;;;;;;3.60;2.10;;;;;;;32.46;25.46;100691.70;109476;1250;66689;-55
2024/04/07 08:13:45;;;;;;;3.30;1.80;;;;;;;32.48;25.83;100692.86;109475;1250;60499;-55
2024/04/07 08:16:12;;;;;;;2.30;1.70;;;;;;;32.66;25.76;100695.42;109498;1250;66117;-55
2024/04/07 08:18:41;;;;;;;3.00;1.80;;;;;;;32.88;25.07;100695.18;109441;1250;60168;-56
2024/04/07 08:21:08;;;;;;;2.60;1.60;;;;;;;33.14;25.05;100696.79;109479;1250;59829;-55
2024/04/07 08:23:35;;;;;;;4.00;1.90;;;;;;;33.36;24.93;100695.45;109404;1250;66535;-58
2024/04/07 08:26:04;;;;;;;4.40;1.70;;;;;;;33.54;24.57;100695.63;109448;1250;60153;-55
2024/04/07 08:28:32;;;;;;;3.30;1.90;;;;;;;33.59;24.18;100696.09;109427;1250;64743;-56
2024/04/07 08:31:01;;;;;;;5.30;1.90;;;;;;;33.40;24.33;100697.85;109457;1250;59988;-55
2024/04/07 08:33:28;;;;;;;3.60;1.60;;;;;;;33.16;24.63;100698.41;109496;1249;59832;-59
2024/04/07 08:35:57;;;;;;;3.70;1.70;;;;;;;33.16;24.68;100698.91;109472;1249;68862;-55
2024/04/07 08:38:25;;;;;;;4.50;1.80;;;;;;;33.36;24.41;100699.15;109481;1250;59852;-55
2024/04/07 08:40:52;;;;;;;2.20;1.30;;;;;;;33.50;23.90;100697.80;109465;1249;65017;-55
2024/04/07 08:43:19;;;;;;;2.80;1.40;;;;;;;33.35;23.47;100695.79;109505;1250;60636;-56
2024/04/07 08:45:48;;;;;;;3.60;1.80;;;;;;;33.15;23.57;100695.61;109452;1250;59688;-58
2024/04/07 08:48:17;;;;;;;4.20;1.80;;;;;;;32.97;23.71;100696.48;109424;1250;69042;-55
2024/04/07 08:50:48;;;;;;;2.10;1.30;;;;;;;32.93;23.56;100697.17;109529;1249;60249;-55
2024/04/07 08:53:15;;;;;;;3.80;1.60;;;;;;;32.86;23.42;100700.39;109494;1250;64017;-55
2024/04/07 08:55:43;;;;;;;3.80;1.30;;;;;;;32.84;22.96;100702.55;109407;1250;60169;-55
2024/04/07 08:58:13;;;;;;;3.80;1.60;;;;;;;32.96;22.59;100700.83;109359;1250;59706;-55
2024/04/07 09:00:43;;;;;;;3.40;1.30;;;;;;;33.14;22.26;100706.36;109475;1250;75456;-55
2024/04/07 09:03:11;;;;;;;2.40;1.30;;;;;;;33.37;22.04;100707.67;109480;1250;60719;-55
2024/04/07 09:05:39;;;;;;;2.60;1.60;;;;;;;33.67;21.51;100704.47;109356;1249;65908;-55
2024/04/07 09:08:06;;;;;;;5.90;1.70;;;;;;;33.87;21.50;100707.46;109389;1251;60117;-56
2024/04/07 09:10:34;;;;;;;2.40;1.20;;;;;;;34.06;21.15;100705.80;109480;1251;59806;-56
2024/04/07 09:13:02;;;;;;;3.40;1.50;;;;;;;34.26;20.79;100704.59;109472;1250;68307;-56
2024/04/07 09:15:29;;;;;;;2.60;1.50;;;;;;;34.29;20.17;100702.76;109467;1250;60554;-55
2024/04/07 09:17:57;;;;;;;2.90;1.10;;;;;;;34.06;20.77;100706.10;109442;1253;65901;-56
2024/04/07 09:20:24;;;;;;;3.30;1.40;;;;;;;34.08;21.07;100708.36;109327;1251;61015;-59
2024/04/07 09:22:52;;;;;;;2.60;1.40;;;;;;;34.13;20.96;100704.37;109473;1251;59900;-56
2024/04/07 09:25:19;;;;;;;3.10;1.30;;;;;;;34.01;20.81;100707.15;109502;1251;66686;-57
2024/04/07 09:27:47;;;;;;;2.20;1.20;;;;;;;33.76;21.35;100713.70;109507;1253;60595;-56
2024/04/07 09:30:15;;;;;;;3.00;1.20;;;;;;;33.70;21.12;100712.99;109433;1251;66127;-55
2024/04/07 09:32:42;;;;;;;3.20;1.50;;;;;;;33.70;21.13;100714.71;109385;1251;60038;-55
2024/04/07 09:35:10;;;;;;;7.90;1.90;;;;;;;33.51;21.08;100711.86;109478;1251;59835;-54
2024/04/07 09:37:44;;;;;;;3.80;1.60;;;;;;;33.06;21.12;100711.42;109448;1253;68650;-56
2024/04/07 09:40:12;;;;;;;2.80;1.40;;;;;;;32.31;21.62;100715.53;109479;1251;59873;-58
2024/04/07 09:42:39;;;;;;;3.00;1.70;;;;;;;31.58;22.13;100716.12;109408;1251;66202;-56
2024/04/07 09:45:09;;;;;;;3.50;1.80;;;;;;;31.18;23.33;100719.30;109442;1253;59716;-56
2024/04/07 09:47:38;;;;;;;2.30;1.40;;;;;;;31.23;23.38;100717.10;109438;1251;59676;-55
2024/04/07 09:50:16;;;;;;;8.00;2.40;;;;;;;31.44;23.26;100713.55;109480;1251;68868;-57
2024/04/07 09:52:47;;;;;;;3.00;1.90;;;;;;;31.77;23.02;100708.79;109466;1251;60471;-55
2024/04/07 09:55:15;;;;;;;2.20;1.40;;;;;;;32.16;22.64;100702.14;109331;1253;66056;-55
2024/04/07 09:57:42;;;;;;;2.70;1.50;;;;;;;32.42;22.61;100698.44;109375;1251;59678;-55
2024/04/07 10:00:13;;;;;;;2.80;1.70;;;;;;;32.65;22.02;100701.01;109434;1251;59836;-55
2024/04/07 10:02:40;;;;;;;2.40;1.50;;;;;;;32.77;21.67;100701.73;109439;1251;66618;-55
2024/04/07 10:05:08;;;;;;;2.40;1.30;;;;;;;32.87;21.57;100701.98;109473;1250;60305;-55
2024/04/07 10:07:35;;;;;;;2.80;1.60;;;;;;;32.93;21.76;100701.63;109399;1251;66169;-55
2024/04/07 10:10:03;;;;;;;3.00;1.60;;;;;;;32.82;21.75;100704.63;109378;1251;59756;-54
2024/04/07 10:12:30;;;;;;;2.50;1.50;;;;;;;32.31;21.87;100714.84;109399;1250;59816;-56
2024/04/07 10:14:59;;;;;;;3.90;1.60;;;;;;;31.57;22.55;100718.59;109460;1251;77561;-55
2024/04/07 10:17:27;;;;;;;2.10;1.50;;;;;;;30.81;23.69;100720.55;109490;1251;65607;-54
2024/04/07 10:19:54;;;;;;;2.90;1.90;;;;;;;29.94;24.68;100731.07;109470;1251;73014;-55
2024/04/07 10:22:23;;;;;;;2.80;2.00;;;;;;;29.04;25.37;100734.52;109432;1256;60203;-55
2024/04/07 10:24:51;;;;;;;2.40;1.40;;;;;;;28.27;26.32;100739.17;109433;1250;60549;-55
2024/04/07 10:27:22;;;;;;;4.70;2.10;;;;;;;27.64;27.00;100741.86;109479;1250;77796;-55
2024/04/07 10:29:56;;;;;;;3.30;1.50;;;;;;;27.09;27.61;100739.35;109390;1254;67558;-54
2024/04/07 10:32:29;;;;;;;3.20;1.70;;;;;;;26.59;28.40;100736.24;109479;1251;71585;-55
2024/04/07 10:35:10;;;;;;;3.00;1.70;;;;;;;26.23;29.02;100736.17;109428;1250;59937;-55
2024/04/07 10:37:38;;;;;;;3.00;1.50;;;;;;;25.96;29.55;100742.52;109454;1250;59626;-55
2024/04/07 10:40:08;;;;;;;2.70;1.20;;;;;;;25.73;30.12;100740.07;109398;1252;75273;-55
2024/04/07 10:42:36;;;;;;;3.50;1.20;;;;;;;25.51;30.31;100741.71;109500;1251;67365;-55
2024/04/07 10:45:08;;;;;;;3.30;1.30;;;;;;;25.31;30.72;100740.04;109469;1252;71189;-54
2024/04/07 10:47:36;;;;;;;3.50;1.60;;;;;;;25.19;31.03;100741.65;109454;1251;59878;-54
2024/04/07 10:50:04;;;;;;;4.50;1.30;;;;;;;25.09;31.46;100745.96;109492;1250;62367;-54
2024/04/07 10:52:31;;;;;;;2.80;1.50;;;;;;;25.17;32.03;100746.27;109452;1251;75192;-54
2024/04/07 10:54:59;;;;;;;2.60;1.20;;;;;;;25.44;31.87;100744.40;109413;1253;67594;-54
2024/04/07 10:57:27;;;;;;;3.50;1.60;;;;;;;25.79;31.41;100735.98;109437;1250;71062;-55
2024/04/07 10:59:54;;;;;;;3.00;1.30;;;;;;;26.24;30.88;100725.64;109449;1250;60216;-54
2024/04/07 11:02:22;;;;;;;2.80;1.50;;;;;;;26.71;30.26;100721.98;109438;1251;61286;-58
2024/04/07 11:04:50;;;;;;;3.30;1.30;;;;;;;27.15;29.59;100721.10;109447;1253;77524;-54
2024/04/07 11:07:19;;;;;;;4.20;1.60;;;;;;;27.53;29.27;100720.92;109519;1249;68184;-55
2024/04/07 11:09:46;;;;;;;1.50;1.00;;;;;;;27.94;28.86;100712.16;109463;1250;73486;-54
2024/04/07 11:12:14;;;;;;;2.40;1.10;;;;;;;28.32;28.02;100709.95;109471;1250;60351;-55
2024/04/07 11:14:42;;;;;;;5.00;1.20;;;;;;;28.44;27.58;100713.16;109255;1250;224307;-54
2024/04/07 11:17:10;;;;;;;3.40;1.50;;;;;;;28.25;27.48;100712.55;109515;1250;75568;-54
2024/04/07 11:19:37;;;;;;;3.10;1.90;;;;;;;27.88;27.74;100714.00;109343;1250;66757;-55
2024/04/07 11:22:05;;;;;;;2.70;1.40;;;;;;;27.33;28.03;100720.17;109459;1251;75022;-55